Time;durP1;ratioP1;P1;durP2;ratioP2;P2;SDS_P1;SDS_P2;PMS_P1;PMS_P2;Temp;Humidity;BMP_temperature;BMP_pressure;BME280_temperature;BME280_humidity;BME280_pressure;Samples;Min_cycle;Max_cycle;Signal;HPM_P1;HPM_P2
2021/05/23 00:00:22;;;;;;;8.57;3.00;;;;;;;-144.99;86.54;52374.72;5096324;28;20318;-61
2021/05/23 00:02:55;;;;;;;30.90;6.80;;;;;;;-144.99;86.57;52374.72;5095460;28;20247;-61
2021/05/23 00:05:27;;;;;;;4.17;2.77;;;;;;;-144.99;86.36;52333.94;5099561;28;20210;-63
2021/05/23 00:08:00;;;;;;;5.73;1.93;;;;;;;-144.99;86.34;52366.56;5103249;28;20230;-62
2021/05/23 00:10:27;;;;;;;4.77;1.80;;;;;;;-144.99;86.11;52362.50;5106317;28;20294;-61
2021/05/23 00:12:55;;;;;;;4.83;2.20;;;;;;;-144.99;86.12;52378.78;5103175;28;20221;-61
2021/05/23 00:15:27;;;;;;;6.13;2.27;;;;;;;-144.99;86.17;52384.91;5110385;28;20216;-62
2021/05/23 00:17:59;;;;;;;5.33;3.03;;;;;;;-144.99;86.16;52382.88;5107674;28;20560;-61
2021/05/23 00:20:26;;;;;;;7.33;2.27;;;;;;;-144.99;86.03;52378.78;5103200;28;20473;-62
2021/05/23 00:22:53;;;;;;;8.13;3.67;;;;;;;-144.99;86.06;52391.03;5103235;28;20211;-61
2021/05/23 00:25:25;;;;;;;5.97;2.10;;;;;;;-144.99;86.13;52366.56;5098431;28;20223;-61
2021/05/23 00:27:55;;;;;;;9.07;2.33;;;;;;;-144.99;85.98;52386.94;5101763;28;20439;-60
2021/05/23 00:30:22;;;;;;;6.67;2.43;;;;;;;-144.99;85.95;52403.25;5103657;28;20207;-62
2021/05/23 00:32:50;;;;;;;6.00;2.13;;;;;;;-144.99;85.92;52403.25;5097021;28;20199;-61
2021/05/23 00:35:22;;;;;;;7.03;2.10;;;;;;;-144.99;85.92;52346.19;5098105;28;20214;-60
2021/05/23 00:37:49;;;;;;;5.77;2.07;;;;;;;-144.99;85.81;52374.72;5097714;28;20246;-61
2021/05/23 00:40:15;;;;;;;10.50;2.53;;;;;;;-144.99;85.86;52370.63;5102914;28;20215;-59
2021/05/23 00:42:44;;;;;;;5.93;2.93;;;;;;;-144.99;85.72;52395.09;5101619;28;20204;-60
2021/05/23 00:45:15;;;;;;;12.87;2.63;;;;;;;-144.99;85.70;52388.97;5106717;28;20447;-60
2021/05/23 00:47:44;;;;;;;8.90;2.17;;;;;;;-144.99;85.51;52391.03;5104362;28;20599;-60
2021/05/23 00:50:18;;;;;;;4.47;1.93;;;;;;;-144.99;85.52;52374.72;5109292;28;20222;-60
2021/05/23 00:52:44;;;;;;;7.70;2.43;;;;;;;-144.99;85.51;52356.38;5103057;28;20219;-61
2021/05/23 00:55:11;;;;;;;7.50;1.93;;;;;;;-144.99;85.17;52391.03;5106042;28;20205;-60
2021/05/23 00:57:37;;;;;;;6.10;3.00;;;;;;;-144.99;85.01;52368.59;5099376;28;20235;-59
2021/05/23 01:00:06;;;;;;;9.33;2.33;;;;;;;-144.99;85.08;52386.94;5103169;28;20223;-59
2021/05/23 01:02:46;;;;;;;6.67;2.53;;;;;;;-144.99;84.94;52391.03;5099921;28;20207;-61
2021/05/23 01:05:15;;;;;;;6.27;2.50;;;;;;;-144.99;84.86;52376.75;4752113;28;10000432;-60
2021/05/23 01:07:42;;;;;;;6.87;2.27;;;;;;;-144.99;85.00;52382.88;5101493;28;20236;-61
2021/05/23 01:10:10;;;;;;;8.73;2.53;;;;;;;-144.99;84.80;52391.03;5107752;28;20203;-62
2021/05/23 01:13:30;;;;;;;5.40;1.80;;;;;;;-144.99;84.80;52401.22;5103837;28;20273;-60
2021/05/23 01:15:56;;;;;;;7.20;2.70;;;;;;;-144.99;84.90;52407.31;5101934;28;20605;-60
2021/05/23 01:18:28;;;;;;;13.23;4.47;;;;;;;-144.99;85.10;52419.56;5102035;28;20705;-60
2021/05/23 01:21:01;;;;;;;8.00;3.00;;;;;;;-144.99;85.09;52382.88;5105300;28;20202;-60
2021/05/23 01:23:31;;;;;;;7.47;2.70;;;;;;;-144.99;85.17;52356.38;5103909;28;20215;-61
2021/05/23 01:26:06;;;;;;;4.27;2.47;;;;;;;-144.99;85.02;52415.47;5095834;28;20289;-62
2021/05/23 01:28:36;;;;;;;7.87;2.57;;;;;;;-144.99;85.07;52378.78;5106803;28;20624;-61
2021/05/23 01:31:11;;;;;;;8.47;2.77;;;;;;;-144.99;85.13;52391.03;5104172;28;20214;-61
2021/05/23 01:33:37;;;;;;;7.23;2.00;;;;;;;-144.99;85.29;52350.25;5101891;28;20204;-62
2021/05/23 01:36:05;;;;;;;10.57;2.80;;;;;;;-144.99;85.36;52386.94;5097901;28;20219;-60
2021/05/23 01:38:35;;;;;;;15.03;5.43;;;;;;;-144.99;85.46;52401.22;5108015;28;20223;-61
2021/05/23 01:41:05;;;;;;;6.60;2.03;;;;;;;-144.99;85.46;52378.78;5108834;28;20250;-60
2021/05/23 01:43:32;;;;;;;3.43;2.13;;;;;;;-144.99;85.58;52393.06;5104437;28;20204;-59
2021/05/23 01:46:05;;;;;;;6.90;2.20;;;;;;;-144.99;85.37;52386.94;5103549;28;20238;-60
2021/05/23 01:48:35;;;;;;;6.03;1.90;;;;;;;-144.99;85.03;52386.94;5100343;28;20220;-60
2021/05/23 01:51:01;;;;;;;6.90;2.30;;;;;;;-144.99;85.35;52358.41;5104081;28;20846;-60
2021/05/23 01:53:30;;;;;;;10.80;3.27;;;;;;;-144.99;85.47;52407.31;5104515;28;20207;-60
2021/05/23 01:55:56;;;;;;;4.27;2.40;;;;;;;-144.99;85.36;52378.78;5106662;28;20199;-59
2021/05/23 01:58:26;;;;;;;9.73;2.93;;;;;;;-144.99;85.49;52444.03;5102708;28;20280;-60
2021/05/23 02:00:53;;;;;;;9.20;1.97;;;;;;;-144.99;85.52;52399.19;5102129;28;20215;-61
2021/05/23 02:03:22;;;;;;;7.03;1.90;;;;;;;-144.99;85.37;52382.88;5105950;28;20200;-65
2021/05/23 02:05:52;;;;;;;6.10;2.03;;;;;;;-144.99;85.40;52366.56;5094423;28;20671;-66
2021/05/23 02:08:23;;;;;;;6.80;2.23;;;;;;;-144.99;85.44;52427.72;5101348;28;20246;-65
2021/05/23 02:10:55;;;;;;;6.00;2.27;;;;;;;-144.99;85.49;52386.94;5102956;28;20203;-65
2021/05/23 02:13:21;;;;;;;7.33;3.03;;;;;;;-144.99;85.35;52399.19;5099699;28;20220;-65
2021/05/23 02:15:52;;;;;;;4.97;2.07;;;;;;;-144.99;85.37;52366.56;5109718;28;20293;-65
2021/05/23 02:18:18;;;;;;;9.13;2.20;;;;;;;-144.99;85.21;52399.19;5107999;28;20250;-67
2021/05/23 02:20:47;;;;;;;5.90;2.70;;;;;;;-144.99;85.28;52350.25;5108742;28;20216;-67
2021/05/23 02:23:15;;;;;;;9.83;4.33;;;;;;;-144.99;85.40;52382.88;5105179;28;20280;-67
2021/05/23 02:25:41;;;;;;;3.20;1.90;;;;;;;-144.99;85.39;52384.91;5109708;27;20264;-65
2021/05/23 02:28:10;;;;;;;17.77;3.87;;;;;;;-144.99;85.47;52399.19;5104240;28;20238;-67
2021/05/23 02:30:41;;;;;;;7.30;2.60;;;;;;;-144.99;85.32;52388.97;5108181;28;20658;-66
2021/05/23 02:33:15;;;;;;;3.93;1.83;;;;;;;-144.99;85.26;52362.50;5106866;28;20208;-67
2021/05/23 02:35:44;;;;;;;5.43;3.53;;;;;;;-144.99;85.32;52348.22;5109026;28;20204;-67
2021/05/23 02:38:15;;;;;;;8.37;2.73;;;;;;;-144.99;85.33;52384.91;5104622;28;20223;-67
2021/05/23 02:40:46;;;;;;;5.43;2.03;;;;;;;-144.99;85.29;52431.78;5106674;28;20542;-66
2021/05/23 02:43:19;;;;;;;11.70;2.70;;;;;;;-144.99;85.40;52391.03;5098162;28;20207;-65
2021/05/23 02:45:51;;;;;;;5.90;3.60;;;;;;;-144.99;85.47;52419.56;5103918;28;20203;-66
2021/05/23 02:48:19;;;;;;;12.67;2.87;;;;;;;-144.99;85.30;52364.53;5100269;28;20217;-66
2021/05/23 02:50:47;;;;;;;7.13;3.27;;;;;;;-144.99;85.37;52395.09;5107665;28;20622;-65
2021/05/23 02:53:16;;;;;;;10.00;3.00;;;;;;;-144.99;85.49;52374.72;5101174;28;20200;-64
2021/05/23 02:55:48;;;;;;;10.83;1.90;;;;;;;-144.99;85.60;52393.06;5105333;28;20443;-60
2021/05/23 02:58:18;;;;;;;11.77;4.57;;;;;;;-144.99;85.65;52388.97;5101917;28;20219;-61
2021/05/23 03:00:46;;;;;;;9.10;2.87;;;;;;;-144.99;85.80;52362.50;5104143;28;20641;-61
2021/05/23 03:03:18;;;;;;;6.80;2.90;;;;;;;-144.99;85.65;52421.59;5105062;28;20199;-61
2021/05/23 03:05:49;;;;;;;6.57;2.57;;;;;;;-144.99;85.59;52378.78;5095565;28;20203;-61
2021/05/23 03:08:23;;;;;;;6.90;2.60;;;;;;;-144.99;85.50;52415.47;5104801;28;20268;-61
2021/05/23 03:10:54;;;;;;;7.87;3.80;;;;;;;-144.99;85.61;52395.09;5099496;28;20199;-57
2021/05/23 03:13:24;;;;;;;9.97;2.87;;;;;;;-144.99;85.87;52350.25;5101286;28;20589;-57
2021/05/23 03:15:50;;;;;;;5.33;2.33;;;;;;;-144.99;86.04;52384.91;5103303;28;20664;-57
2021/05/23 03:18:16;;;;;;;4.07;1.93;;;;;;;-144.99;85.92;52395.09;5107431;28;20231;-57
2021/05/23 03:20:43;;;;;;;12.23;2.50;;;;;;;-144.99;86.17;52382.88;5107983;28;20697;-61
2021/05/23 03:23:13;;;;;;;8.53;2.70;;;;;;;-144.99;86.35;52393.06;5104254;28;20208;-60
2021/05/23 03:25:40;;;;;;;4.70;2.27;;;;;;;-144.99;86.40;52370.63;5097544;28;20212;-61
2021/05/23 03:28:09;;;;;;;3.73;1.77;;;;;;;-144.99;86.65;52425.66;5106111;28;20223;-61
2021/05/23 03:30:37;;;;;;;12.70;3.20;;;;;;;-144.99;86.83;52366.56;5108776;28;20239;-61
2021/05/23 03:33:04;;;;;;;9.07;4.67;;;;;;;-144.99;86.88;52382.88;5100116;28;20208;-60
2021/05/23 03:35:30;;;;;;;14.67;2.87;;;;;;;-144.99;87.01;52386.94;5099788;28;20215;-61
2021/05/23 03:37:56;;;;;;;4.80;2.00;;;;;;;-144.99;86.99;52419.56;5103382;28;20227;-61
2021/05/23 03:40:23;;;;;;;10.00;2.80;;;;;;;-144.99;86.95;52366.56;5105173;28;20269;-63
2021/05/23 03:42:50;;;;;;;6.47;3.03;;;;;;;-144.99;86.94;52427.72;5098488;28;20210;-63
2021/05/23 03:45:24;;;;;;;5.07;2.17;;;;;;;-144.99;86.85;52401.22;5106573;28;20215;-63
2021/05/23 03:47:51;;;;;;;15.70;3.00;;;;;;;-144.99;86.98;52374.72;5104396;28;20245;-62
2021/05/23 03:50:20;;;;;;;16.50;3.10;;;;;;;-144.99;87.01;52413.44;5101422;28;20722;-61
2021/05/23 03:52:46;;;;;;;8.83;2.70;;;;;;;-144.99;87.05;52415.47;5097064;28;20207;-61
2021/05/23 03:55:13;;;;;;;6.33;2.97;;;;;;;-144.99;87.15;52391.03;5100925;28;20886;-61
2021/05/23 03:57:46;;;;;;;3.57;1.83;;;;;;;-144.99;86.82;52364.53;5101321;28;20238;-61
2021/05/23 04:00:17;;;;;;;3.83;1.90;;;;;;;-144.99;86.71;52419.56;5103069;28;20220;-59
2021/05/23 04:02:47;;;;;;;5.43;2.43;;;;;;;-144.99;86.65;52399.19;5103545;28;20666;-58
2021/05/23 04:05:15;;;;;;;6.37;2.07;;;;;;;-144.99;86.39;52407.31;5095880;28;20197;-59
2021/05/23 04:07:43;;;;;;;13.57;3.20;;;;;;;-144.99;86.17;52358.41;5102076;28;20706;-57
2021/05/23 04:10:11;;;;;;;6.13;1.80;;;;;;;-144.99;86.22;52395.09;5101383;28;20481;-59
2021/05/23 04:12:46;;;;;;;4.70;3.00;;;;;;;-144.99;86.21;52378.78;5098137;28;20258;-58
2021/05/23 04:15:17;;;;;;;11.33;3.00;;;;;;;-144.99;86.32;52378.78;5109246;28;20207;-63
2021/05/23 04:17:44;;;;;;;8.47;2.33;;;;;;;-144.99;86.49;52391.03;5106394;28;20235;-63
2021/05/23 04:20:15;;;;;;;5.77;2.70;;;;;;;-144.99;86.59;52378.78;5103918;28;20273;-64
2021/05/23 04:22:44;;;;;;;7.47;2.00;;;;;;;-144.99;86.53;52407.31;5096862;28;20240;-63
2021/05/23 04:25:17;;;;;;;3.23;2.07;;;;;;;-144.99;86.76;52399.19;5096734;28;20207;-64
2021/05/23 04:27:46;;;;;;;6.37;1.80;;;;;;;-144.99;86.67;52395.09;5106277;28;20227;-62
2021/05/23 04:30:18;;;;;;;13.47;2.97;;;;;;;-144.99;86.49;52354.34;5109427;28;20200;-64
2021/05/23 04:32:47;;;;;;;7.77;2.80;;;;;;;-144.99;86.34;52358.41;5104281;28;20203;-63
2021/05/23 04:35:16;;;;;;;2.33;1.37;;;;;;;-144.99;86.30;52417.53;5109893;28;20241;-64
2021/05/23 04:37:43;;;;;;;9.00;1.63;;;;;;;-144.99;86.24;52374.72;5102620;28;20231;-62
2021/05/23 04:40:14;;;;;;;9.63;2.70;;;;;;;-144.99;85.89;52393.06;5095334;28;20257;-63
2021/05/23 04:42:49;;;;;;;6.53;2.30;;;;;;;-144.99;85.66;52360.44;5101619;28;20204;-63
2021/05/23 04:45:19;;;;;;;7.57;2.40;;;;;;;-144.99;85.13;52395.09;5106405;28;20675;-63
2021/05/23 04:47:45;;;;;;;7.80;2.13;;;;;;;-144.99;84.89;52370.63;5106224;28;20228;-64
2021/05/23 04:50:13;;;;;;;6.33;1.90;;;;;;;-144.99;84.61;52352.28;5095301;28;21261;-62
2021/05/23 04:52:39;;;;;;;7.10;2.27;;;;;;;-144.99;84.17;52395.09;5105810;28;20689;-62
2021/05/23 04:55:07;;;;;;;4.97;3.50;;;;;;;-144.99;84.14;52419.56;5108974;28;20214;-62
2021/05/23 04:57:33;;;;;;;10.80;3.50;;;;;;;-144.99;84.48;52378.78;5102222;28;20254;-62
2021/05/23 04:59:59;;;;;;;7.23;2.87;;;;;;;-144.99;84.01;52399.19;5107460;28;20231;-63
2021/05/23 05:02:27;;;;;;;6.83;3.97;;;;;;;-144.99;83.98;52382.88;5111967;28;20339;-63
2021/05/23 05:04:56;;;;;;;11.27;2.77;;;;;;;-144.99;83.84;52358.41;5100513;28;20283;-61
2021/05/23 05:07:22;;;;;;;13.43;2.83;;;;;;;-144.99;83.69;52415.47;5102151;28;20216;-61
2021/05/23 05:09:48;;;;;;;17.77;4.93;;;;;;;-144.99;82.78;52374.72;5101132;28;20211;-60
2021/05/23 05:12:14;;;;;;;12.33;3.57;;;;;;;-144.99;82.06;52419.56;5106810;28;20200;-61
2021/05/23 05:14:40;;;;;;;6.87;2.87;;;;;;;-144.99;82.46;52366.56;5111117;28;20203;-59
2021/05/23 05:17:06;;;;;;;12.13;3.13;;;;;;;-144.99;82.49;52370.63;5110084;28;20284;-59
2021/05/23 05:19:36;;;;;;;5.73;2.17;;;;;;;-144.99;82.30;52391.03;5101260;28;20677;-60
2021/05/23 05:22:05;;;;;;;4.30;1.93;;;;;;;-144.99;82.04;52356.38;5105872;28;20234;-59
2021/05/23 05:24:34;;;;;;;5.53;2.00;;;;;;;-144.99;82.09;52352.28;5103590;28;20217;-60
2021/05/23 05:27:00;;;;;;;18.20;3.27;;;;;;;-144.99;81.40;52364.53;5104962;28;20230;-58
2021/05/23 05:29:29;;;;;;;6.30;2.27;;;;;;;-144.99;80.80;52374.72;5105386;28;20204;-60
2021/05/23 05:31:58;;;;;;;6.23;1.60;;;;;;;-144.99;80.29;52350.25;5111284;28;20203;-59
2021/05/23 05:34:24;;;;;;;5.13;1.50;;;;;;;-144.99;79.42;52374.72;5100611;28;20302;-58
2021/05/23 05:36:57;;;;;;;9.37;3.33;;;;;;;-144.99;79.22;52370.63;5108159;27;20596;-59
2021/05/23 05:39:23;;;;;;;4.13;2.63;;;;;;;-144.99;79.84;52350.25;5104951;28;20222;-60
2021/05/23 05:41:49;;;;;;;4.83;1.60;;;;;;;-144.99;79.95;52358.41;5102977;28;20252;-60
2021/05/23 05:44:18;;;;;;;8.50;2.50;;;;;;;-144.99;79.44;52323.75;5105333;28;20200;-59
2021/05/23 05:46:44;;;;;;;15.57;2.63;;;;;;;-144.99;79.83;52340.06;5111402;28;20227;-60
2021/05/23 05:49:10;;;;;;;9.53;2.47;;;;;;;-144.99;79.72;52374.72;5103377;28;20200;-61
2021/05/23 05:51:39;;;;;;;10.33;4.00;;;;;;;-144.99;79.14;52354.34;5107238;28;20203;-62
2021/05/23 05:54:11;;;;;;;6.17;2.10;;;;;;;-144.99;78.77;52378.78;5102714;28;20592;-60
2021/05/23 05:56:38;;;;;;;10.17;2.03;;;;;;;-144.99;78.22;52358.41;5102134;28;20678;-60
2021/05/23 05:59:10;;;;;;;6.97;2.47;;;;;;;-144.99;78.04;52366.56;5107211;27;20204;-60
2021/05/23 06:01:38;;;;;;;5.23;1.70;;;;;;;-144.99;77.55;52352.28;5108820;28;20203;-61
2021/05/23 06:04:05;;;;;;;6.80;1.97;;;;;;;-144.99;77.22;52362.50;5105585;28;20211;-62
2021/05/23 06:06:33;;;;;;;7.33;2.03;;;;;;;-144.99;76.84;52374.72;5101216;28;20694;-61
2021/05/23 06:08:59;;;;;;;7.73;2.30;;;;;;;-144.99;76.09;52329.88;5102372;28;20207;-60
2021/05/23 06:11:32;;;;;;;6.13;2.63;;;;;;;-144.99;75.82;52368.59;5107143;28;20245;-64
2021/05/23 06:13:58;;;;;;;7.43;2.03;;;;;;;-144.99;75.48;52344.16;5097694;28;20209;-65
2021/05/23 06:16:25;;;;;;;4.47;3.13;;;;;;;-144.99;75.63;52331.91;5109516;27;20219;-68
2021/05/23 06:18:51;;;;;;;6.83;2.97;;;;;;;-144.99;74.99;52338.03;5101864;28;20222;-67
2021/05/23 06:21:17;;;;;;;12.93;5.10;;;;;;;-144.99;75.44;52362.50;5105400;28;20235;-61
2021/05/23 06:23:43;;;;;;;13.50;4.63;;;;;;;-144.99;74.05;52366.56;5105936;28;20214;-61
2021/05/23 06:26:13;;;;;;;6.77;1.87;;;;;;;-144.99;73.88;52391.03;5102699;28;20591;-62
2021/05/23 06:28:43;;;;;;;9.40;3.10;;;;;;;-144.99;74.67;52358.41;5109585;28;20207;-62
2021/05/23 06:31:12;;;;;;;6.57;2.13;;;;;;;-144.99;74.81;52378.78;5106773;28;20697;-60
2021/05/23 06:33:41;;;;;;;9.53;2.47;;;;;;;-144.99;74.25;52350.25;5100225;28;20620;-61
2021/05/23 06:36:07;;;;;;;8.90;2.17;;;;;;;-144.99;73.37;52388.97;5104805;28;20196;-61
2021/05/23 06:38:33;;;;;;;11.50;2.93;;;;;;;-144.99;72.67;52358.41;5107848;28;20227;-62
2021/05/23 06:41:04;;;;;;;9.43;3.63;;;;;;;-144.99;72.61;52391.03;5105294;28;20238;-59
2021/05/23 06:43:31;;;;;;;8.63;2.37;;;;;;;-144.99;72.44;52350.25;5103222;28;20750;-61
2021/05/23 06:46:01;;;;;;;7.23;1.70;;;;;;;-144.99;72.12;52329.88;5111299;28;20208;-62
2021/05/23 06:48:30;;;;;;;6.93;1.97;;;;;;;-144.99;72.18;52350.25;5101982;28;20216;-60
2021/05/23 06:51:00;;;;;;;9.83;4.20;;;;;;;-144.99;72.26;52325.81;5100562;28;20211;-59
2021/05/23 06:53:32;;;;;;;9.87;2.67;;;;;;;-144.99;71.71;52342.09;5106077;28;20203;-61
2021/05/23 06:55:58;;;;;;;6.70;2.03;;;;;;;-144.99;71.07;52331.91;5106164;28;20205;-59
2021/05/23 06:58:27;;;;;;;14.67;3.10;;;;;;;-144.99;71.13;52329.88;5103034;28;20241;-60
2021/05/23 07:00:53;;;;;;;8.37;2.47;;;;;;;-144.99;71.21;52352.28;5104035;28;20215;-65
2021/05/23 07:03:22;;;;;;;13.23;5.13;;;;;;;-144.99;70.46;52358.41;5106327;28;20260;-66
2021/05/23 07:05:52;;;;;;;12.50;1.80;;;;;;;-144.99;70.39;52356.38;5099327;28;20217;-61
2021/05/23 07:08:18;;;;;;;10.10;2.00;;;;;;;-144.99;70.61;52348.22;5107281;28;20257;-63
2021/05/23 07:10:45;;;;;;;14.10;3.27;;;;;;;-144.99;69.58;52325.81;5110594;28;20403;-61
2021/05/23 07:13:11;;;;;;;14.90;5.10;;;;;;;-144.99;70.35;52346.19;5102259;28;20656;-61
2021/05/23 07:15:37;;;;;;;12.13;4.10;;;;;;;-144.99;70.21;52317.66;5109885;28;20199;-62
2021/05/23 07:18:04;;;;;;;5.50;1.20;;;;;;;-144.99;70.33;52348.22;5110158;28;20212;-62
2021/05/23 07:20:33;;;;;;;8.63;3.33;;;;;;;-144.99;68.71;52356.38;5103817;28;20570;-61
2021/05/23 07:22:59;;;;;;;5.63;1.80;;;;;;;-144.99;68.68;52313.56;5108408;28;20298;-62
2021/05/23 07:25:28;;;;;;;4.60;1.83;;;;;;;-144.99;68.83;52303.38;5097493;28;20864;-61
2021/05/23 07:28:00;;;;;;;6.43;1.90;;;;;;;-144.99;68.12;52329.88;5103198;28;20288;-61
2021/05/23 07:30:26;;;;;;;9.83;1.47;;;;;;;-144.99;68.41;52374.72;5104446;28;20456;-61
2021/05/23 07:32:53;;;;;;;9.07;2.77;;;;;;;-144.99;68.52;52350.25;5107516;28;20649;-61
2021/05/23 07:35:19;;;;;;;8.00;2.23;;;;;;;-144.99;68.11;52293.19;5098256;28;20203;-62
2021/05/23 07:37:46;;;;;;;10.37;2.03;;;;;;;-144.99;67.40;52319.69;5100910;28;20759;-63
2021/05/23 07:40:16;;;;;;;7.13;2.03;;;;;;;-144.99;66.42;52366.56;5104336;28;20254;-63
2021/05/23 07:42:42;;;;;;;4.67;1.80;;;;;;;-144.99;66.39;52317.66;5102837;28;20211;-62
2021/05/23 07:45:12;;;;;;;6.87;2.17;;;;;;;-144.99;65.66;52309.50;5104414;28;20207;-65
2021/05/23 07:47:41;;;;;;;10.33;2.93;;;;;;;-144.99;63.55;52338.03;5098580;28;20227;-63
2021/05/23 07:50:09;;;;;;;6.63;1.90;;;;;;;-144.99;63.94;52350.25;5102243;28;20202;-63
2021/05/23 07:52:35;;;;;;;8.73;2.27;;;;;;;-144.99;64.03;52305.41;5101139;28;20204;-62
2021/05/23 07:55:02;;;;;;;12.20;1.63;;;;;;;-144.99;64.03;52370.63;5106367;28;20207;-61
2021/05/23 07:57:31;;;;;;;2.73;1.20;;;;;;;-144.99;62.58;52378.78;5107672;28;20661;-62
2021/05/23 07:59:57;;;;;;;6.33;1.77;;;;;;;-144.99;64.26;52350.25;5104691;28;20587;-61
2021/05/23 08:02:23;;;;;;;6.80;1.57;;;;;;;-144.99;64.57;52321.72;5102491;28;20685;-64
2021/05/23 08:04:49;;;;;;;12.27;2.27;;;;;;;-144.99;63.87;52305.41;5101586;28;20709;-63
2021/05/23 08:07:18;;;;;;;8.33;1.53;;;;;;;-144.99;64.21;52362.50;5098371;28;20228;-63
2021/05/23 08:09:44;;;;;;;7.47;2.03;;;;;;;-144.99;64.57;52354.34;5104272;28;20212;-63
2021/05/23 08:12:11;;;;;;;8.90;2.33;;;;;;;-144.99;63.48;52303.38;5101581;28;20315;-63
2021/05/23 08:14:37;;;;;;;6.67;2.43;;;;;;;-144.99;62.74;52329.88;5102570;28;20199;-62
2021/05/23 08:17:03;;;;;;;10.60;3.37;;;;;;;-144.99;63.13;52321.72;5101289;28;20718;-62
2021/05/23 08:19:32;;;;;;;6.60;1.63;;;;;;;-144.99;62.54;52293.19;5100999;28;20211;-63
2021/05/23 08:22:01;;;;;;;8.00;2.60;;;;;;;-144.99;61.48;52309.50;5105590;28;20264;-63
2021/05/23 08:24:30;;;;;;;4.80;1.60;;;;;;;-144.99;62.08;52350.25;5102152;28;20196;-63
2021/05/23 08:27:01;;;;;;;9.07;2.13;;;;;;;-144.99;61.72;52287.06;5103995;28;20239;-63
2021/05/23 08:29:30;;;;;;;12.07;2.00;;;;;;;-144.99;60.95;52321.72;5106772;28;20247;-67
2021/05/23 08:32:00;;;;;;;8.97;1.60;;;;;;;-144.99;59.66;52305.41;5102601;28;20200;-64
2021/05/23 08:34:30;;;;;;;5.70;1.60;;;;;;;-144.99;59.01;52342.09;5109247;27;20209;-65
2021/05/23 08:36:56;;;;;;;5.67;1.80;;;;;;;-144.99;59.95;52285.03;5118069;28;20239;-66
2021/05/23 08:39:28;;;;;;;7.73;1.27;;;;;;;-144.99;60.50;52333.94;5104940;28;20208;-63
2021/05/23 08:41:55;;;;;;;6.73;1.47;;;;;;;-144.99;59.31;52321.72;5105139;28;20647;-65
2021/05/23 08:44:22;;;;;;;7.23;2.10;;;;;;;-144.99;60.25;52317.66;5108421;28;20210;-65
2021/05/23 08:46:53;;;;;;;3.63;1.57;;;;;;;-144.99;60.21;52321.72;5100180;28;20219;-62
2021/05/23 08:49:26;;;;;;;4.43;1.40;;;;;;;-144.99;59.32;52327.84;5093997;28;20212;-63
2021/05/23 08:51:57;;;;;;;5.17;1.17;;;;;;;-144.99;59.54;52325.81;5098720;28;20204;-67
2021/05/23 08:54:31;;;;;;;3.10;2.07;;;;;;;-144.99;59.40;52329.88;5107315;28;20223;-63
2021/05/23 08:57:03;;;;;;;6.53;1.50;;;;;;;-144.99;58.65;52370.63;5100732;28;20306;-63
2021/05/23 08:59:32;;;;;;;7.13;1.43;;;;;;;-144.99;58.67;52313.56;5105682;28;20214;-65
2021/05/23 09:02:08;;;;;;;7.43;2.07;;;;;;;-144.99;57.18;52329.88;5104352;28;20208;-63
2021/05/23 09:04:34;;;;;;;4.97;1.07;;;;;;;-144.99;57.57;52327.84;5102614;28;20238;-63
2021/05/23 09:07:01;;;;;;;8.83;2.23;;;;;;;-144.99;57.72;52305.41;5102158;28;20296;-63
2021/05/23 09:09:27;;;;;;;5.93;1.37;;;;;;;-144.99;58.20;52342.09;5108232;28;20203;-63
2021/05/23 09:12:01;;;;;;;5.47;2.10;;;;;;;-144.99;57.61;52301.34;5110197;27;20200;-63
2021/05/23 09:14:31;;;;;;;7.57;1.63;;;;;;;-144.99;57.63;52350.25;5103300;28;20211;-64
2021/05/23 09:17:01;;;;;;;6.67;1.17;;;;;;;-144.99;55.62;52285.03;4394225;28;10000825;-63
2021/05/23 09:19:45;;;;;;;5.27;1.87;;;;;;;-144.99;55.39;52280.97;5096155;28;20212;-62
2021/05/23 09:22:13;;;;;;;6.80;3.43;;;;;;;-144.99;55.86;52323.75;5096639;28;20221;-62
2021/05/23 09:24:53;;;;;;;6.77;2.37;;;;;;;-144.99;56.17;52293.19;5089154;28;20212;-62
2021/05/23 09:27:23;;;;;;;5.77;1.30;;;;;;;-144.99;54.91;52305.41;5089785;28;20239;-65
2021/05/23 09:30:01;;;;;;;5.87;1.60;;;;;;;-144.99;54.61;52256.50;5088990;28;20214;-70
2021/05/23 09:32:27;;;;;;;4.10;0.97;;;;;;;-144.99;54.26;52289.13;5091348;28;20292;-69
2021/05/23 09:35:02;;;;;;;4.20;1.17;;;;;;;-144.99;54.54;52293.19;5102149;28;20282;-69
2021/05/23 09:37:28;;;;;;;3.40;1.97;;;;;;;-144.99;53.69;52289.13;5100527;28;20230;-70
2021/05/23 09:39:54;;;;;;;4.00;1.37;;;;;;;-144.99;53.86;52297.25;5088982;28;20242;-69
2021/05/23 09:42:29;;;;;;;6.70;1.83;;;;;;;-144.99;53.54;52287.06;5095106;28;20715;-70
2021/05/23 09:45:00;;;;;;;2.27;1.00;;;;;;;-144.99;53.66;52301.34;5099715;28;20213;-70
2021/05/23 09:47:27;;;;;;;3.83;1.70;;;;;;;-144.99;53.04;52272.81;5089369;28;20615;-70
2021/05/23 09:49:55;;;;;;;4.67;1.50;;;;;;;-144.99;52.39;52236.13;5089869;28;20226;-71
2021/05/23 09:52:31;;;;;;;3.80;1.03;;;;;;;-144.99;52.18;52293.19;5097664;28;20240;-70
2021/05/23 09:54:59;;;;;;;3.67;0.90;;;;;;;-144.99;52.58;52287.06;5092705;28;20222;-71
2021/05/23 09:57:26;;;;;;;3.30;0.80;;;;;;;-144.99;51.60;52295.22;5087476;28;20234;-68
2021/05/23 10:00:07;;;;;;;1.87;0.90;;;;;;;-144.99;52.53;52333.94;5088570;28;20823;-68
2021/05/23 10:02:33;;;;;;;2.87;1.10;;;;;;;-144.99;51.25;52325.81;5101546;28;20260;-68
2021/05/23 10:05:05;;;;;;;3.50;1.27;;;;;;;-144.99;52.04;52264.66;5106133;28;20712;-67
2021/05/23 10:07:35;;;;;;;3.83;1.90;;;;;;;-144.99;52.68;52313.56;5100137;28;20701;-67
2021/05/23 10:10:02;;;;;;;1.80;1.50;;;;;;;-144.99;52.01;52305.41;5101359;28;20210;-68
2021/05/23 10:12:28;;;;;;;4.13;1.30;;;;;;;-144.99;52.93;52289.13;5101419;28;20211;-67
2021/05/23 10:14:56;;;;;;;2.93;1.00;;;;;;;-144.99;52.59;52311.53;5107227;28;20204;-67
2021/05/23 10:17:22;;;;;;;6.37;1.53;;;;;;;-144.99;53.08;52252.44;5101457;28;20250;-67
2021/05/23 10:19:49;;;;;;;2.50;0.97;;;;;;;-144.99;53.47;52342.09;5092619;28;20267;-66
2021/05/23 10:22:16;;;;;;;8.37;2.00;;;;;;;-144.99;54.17;52329.88;5101042;28;20977;-66
2021/05/23 10:24:49;;;;;;;2.73;1.07;;;;;;;-144.99;54.13;52338.03;5103926;28;20211;-66
2021/05/23 10:27:22;;;;;;;4.83;1.60;;;;;;;-144.99;54.36;52325.81;5089986;28;20221;-66
2021/05/23 10:29:54;;;;;;;3.77;1.67;;;;;;;-144.99;54.57;52354.34;5096929;28;20235;-69
2021/05/23 10:32:24;;;;;;;4.33;1.70;;;;;;;-144.99;54.77;52336.00;5099334;28;20214;-68
2021/05/23 10:34:50;;;;;;;3.93;1.40;;;;;;;-144.99;54.67;52333.94;5100857;28;20214;-66
2021/05/23 10:37:26;;;;;;;2.90;1.20;;;;;;;-144.99;55.37;52289.13;5099482;28;20240;-67
2021/05/23 10:39:52;;;;;;;3.00;1.23;;;;;;;-144.99;54.55;52285.03;5095157;28;20273;-67
2021/05/23 10:42:19;;;;;;;3.53;1.20;;;;;;;-144.99;54.75;52315.59;5101997;28;20208;-66
2021/05/23 10:44:47;;;;;;;1.70;0.90;;;;;;;-144.99;54.29;52338.03;5094137;28;20221;-68
2021/05/23 10:47:15;;;;;;;2.97;1.20;;;;;;;-144.99;53.92;52297.25;5105724;28;20222;-68
2021/05/23 10:49:56;;;;;;;4.53;1.60;;;;;;;-144.99;52.93;52264.66;5097395;28;20661;-68
2021/05/23 10:52:31;;;;;;;6.80;3.13;;;;;;;-144.99;51.38;52221.84;5106331;28;20214;-66
2021/05/23 10:55:00;;;;;;;5.30;1.40;;;;;;;-144.99;50.27;52283.00;5103014;28;20508;-67
2021/05/23 10:57:26;;;;;;;4.43;1.00;;;;;;;-144.99;50.33;52232.03;5105055;28;20238;-68
2021/05/23 11:00:10;;;;;;;4.30;1.03;;;;;;;-144.99;50.45;52272.81;5101001;28;20238;-66
2021/05/23 11:02:41;;;;;;;1.40;1.03;;;;;;;-144.99;51.56;52325.81;5106452;28;20210;-68
2021/05/23 11:05:10;;;;;;;3.70;1.40;;;;;;;-144.99;52.34;52297.25;5105222;28;20576;-66
2021/05/23 11:07:40;;;;;;;6.23;1.20;;;;;;;-144.99;52.92;52305.41;5107290;28;20550;-67
2021/05/23 11:10:17;;;;;;;3.60;1.43;;;;;;;-144.99;52.58;52252.44;5110788;28;20214;-69
2021/05/23 11:12:55;;;;;;;2.90;0.73;;;;;;;-144.99;52.80;52252.44;5100242;28;20211;-67
2021/05/23 11:15:26;;;;;;;5.77;1.80;;;;;;;-144.99;52.53;52207.59;5097113;28;20207;-67
2021/05/23 11:17:58;;;;;;;4.50;1.20;;;;;;;-144.99;52.15;52283.00;5101913;28;20774;-66
2021/05/23 11:20:25;;;;;;;3.57;0.90;;;;;;;-144.99;51.67;52183.13;5103747;28;20227;-67
2021/05/23 11:22:56;;;;;;;6.73;1.43;;;;;;;-144.99;51.03;52248.34;5091151;28;20694;-67
2021/05/23 11:25:23;;;;;;;8.60;1.40;;;;;;;-144.99;50.53;52289.13;5097379;28;20211;-66